Time;durP1;ratioP1;P1;durP2;ratioP2;P2;SDS_P1;SDS_P2;PMS_P1;PMS_P2;Temp;Humidity;BMP_temperature;BMP_pressure;BME280_temperature;BME280_humidity;BME280_pressure;Samples;Min_cycle;Max_cycle;Signal;HPM_P1;HPM_P2
2021/05/11 00:01:18;;;;;;;12.30;5.17;;;;;;;12.24;71.07;99252.83;1798709;78;22964;-78
2021/05/11 00:04:13;;;;;;;8.58;4.58;;;;;;;12.08;73.19;99256.33;1806959;78;22984;-77
2021/05/11 00:06:49;;;;;;;12.40;4.40;;;;;;;11.97;71.77;99255.77;1814456;78;23368;-79
2021/05/11 00:09:26;;;;;;;11.10;5.00;;;;;;;11.89;73.21;99257.29;1844333;76;22200;-79
2021/05/11 00:12:01;;;;;;;10.30;4.83;;;;;;;11.86;73.42;99253.91;1759722;79;22964;-77
2021/05/11 00:14:36;;;;;;;10.28;4.65;;;;;;;11.84;73.46;99251.80;1793544;79;22991;-77
2021/05/11 00:17:11;;;;;;;9.93;4.40;;;;;;;11.82;71.96;99260.95;1819651;76;22874;-78
2021/05/11 00:19:48;;;;;;;9.03;4.92;;;;;;;11.80;73.26;99258.83;1762915;79;28670;-77
2021/05/11 00:22:22;;;;;;;9.05;4.45;;;;;;;11.88;70.74;99250.81;1807735;78;22918;-81
2021/05/11 00:24:58;;;;;;;12.15;5.12;;;;;;;11.86;71.40;99260.42;1811005;79;23357;-78
2021/05/11 00:27:34;;;;;;;13.65;5.12;;;;;;;11.81;72.09;99258.38;1803034;78;22936;-80
2021/05/11 00:30:17;;;;;;;15.23;5.70;;;;;;;11.73;72.04;99246.41;1793654;77;22943;-78
2021/05/11 00:32:54;;;;;;;11.18;5.00;;;;;;;11.69;71.30;99248.69;1838252;77;22567;-79
2021/05/11 00:35:29;;;;;;;16.52;5.53;;;;;;;11.66;71.04;99240.13;1814170;77;22957;-79
2021/05/11 00:38:05;;;;;;;9.33;5.35;;;;;;;11.60;72.18;99242.45;1814177;78;22901;-81
2021/05/11 00:40:40;;;;;;;12.47;5.37;;;;;;;11.58;72.07;99240.76;1812916;78;23719;-78
2021/05/11 00:43:22;;;;;;;11.57;5.72;;;;;;;11.53;72.99;99243.49;1910612;73;22854;-79
2021/05/11 00:45:59;;;;;;;12.25;5.95;;;;;;;11.39;75.46;99243.01;1800380;78;28098;-77
2021/05/11 00:48:36;;;;;;;12.63;6.13;;;;;;;11.40;72.39;99235.59;1823951;77;33428;-78
2021/05/11 00:51:13;;;;;;;13.32;5.65;;;;;;;11.40;73.62;99234.29;1815067;77;23275;-78
2021/05/11 00:53:49;;;;;;;16.37;6.22;;;;;;;11.34;73.78;99232.73;1796538;78;28614;-77
2021/05/11 00:56:26;;;;;;;15.30;5.72;;;;;;;11.40;75.63;99239.50;1849393;76;27689;-78
2021/05/11 00:59:02;;;;;;;12.15;5.83;;;;;;;11.45;75.05;99239.78;1809789;77;28153;-77
2021/05/11 01:01:37;;;;;;;9.73;5.08;;;;;;;11.52;74.20;99233.98;1821709;77;22903;-79
2021/05/11 01:04:13;;;;;;;13.28;4.90;;;;;;;11.50;73.65;99234.03;1814892;78;22949;-78
2021/05/11 01:06:51;;;;;;;10.98;5.60;;;;;;;11.50;73.53;99227.97;1819476;76;28689;-78
2021/05/11 01:09:27;;;;;;;12.18;5.83;;;;;;;11.59;73.22;99228.16;1806658;77;28612;-78
2021/05/11 01:12:04;;;;;;;13.15;6.17;;;;;;;11.65;73.20;99231.44;1799979;78;28292;-78
2021/05/11 01:14:41;;;;;;;15.20;5.42;;;;;;;11.72;72.98;99238.66;1815022;76;22885;-79
2021/05/11 01:19:59;;;;;;;12.15;4.95;;;;;;;11.59;73.35;99242.02;1791075;79;23505;-81
2021/05/11 01:25:35;;;;;;;12.13;4.45;;;;;;;11.34;73.28;99241.38;1786815;77;22916;-77
2021/05/11 01:31:11;;;;;;;15.78;5.20;;;;;;;11.19;73.99;99240.47;1816619;78;23353;-77
2021/05/11 01:48:01;;;;;;;14.90;5.40;;;;;;;10.72;75.45;99222.96;1827380;78;22940;-80
2021/05/11 02:11:08;;;;;;;11.97;4.35;;;;;;;10.54;76.20;99208.22;1815752;78;22881;-79
2021/05/11 02:24:51;;;;;;;7.55;4.22;;;;;;;10.31;76.88;99227.38;1815666;76;22874;-81
2021/05/11 02:27:26;;;;;;;9.00;4.60;;;;;;;10.28;75.52;99219.60;1808494;78;23449;-79
2021/05/11 02:30:00;;;;;;;15.98;5.45;;;;;;;10.25;76.40;99225.73;1790850;77;23433;-83
2021/05/11 02:32:40;;;;;;;11.73;5.00;;;;;;;10.21;75.07;99227.14;1811504;78;22950;-78
2021/05/11 02:35:18;;;;;;;12.45;4.70;;;;;;;10.16;75.47;99221.56;1794095;79;22959;-78
2021/05/11 02:37:54;;;;;;;12.35;4.53;;;;;;;10.13;75.46;99229.44;1795015;78;22913;-80
2021/05/11 02:40:29;;;;;;;11.63;4.70;;;;;;;10.08;73.36;99227.82;1757147;79;22951;-77
2021/05/11 02:43:10;;;;;;;10.55;5.47;;;;;;;9.99;77.51;99232.78;1807260;76;28062;-78
2021/05/11 02:45:43;;;;;;;12.98;5.65;;;;;;;10.01;76.00;99229.70;1822304;76;22863;-79
2021/05/11 02:48:19;;;;;;;14.28;5.97;;;;;;;9.94;76.68;99234.59;1816622;76;29408;-79
2021/05/11 02:51:02;;;;;;;13.38;5.72;;;;;;;10.00;77.78;99237.07;1795813;78;22938;-78
2021/05/11 02:53:38;;;;;;;13.93;6.15;;;;;;;9.96;78.54;99234.13;1801415;78;28071;-79
2021/05/11 02:56:12;;;;;;;9.93;4.80;;;;;;;10.02;77.67;99230.09;1794868;78;22940;-78
2021/05/11 02:58:49;;;;;;;14.10;5.20;;;;;;;10.00;78.44;99239.67;1816831;78;22897;-77
2021/05/11 03:01:30;;;;;;;13.00;5.58;;;;;;;9.97;77.11;99238.45;1815167;78;22910;-81
2021/05/11 03:04:07;;;;;;;13.65;5.75;;;;;;;9.95;78.15;99231.98;1796042;79;28171;-77
2021/05/11 03:06:43;;;;;;;13.62;5.78;;;;;;;10.01;77.63;99234.02;1802718;78;28171;-77
2021/05/11 03:09:38;;;;;;;13.70;5.30;;;;;;;10.08;76.88;99237.77;1809436;77;22974;-78
2021/05/11 03:12:14;;;;;;;16.73;6.15;;;;;;;10.05;77.40;99237.84;1846098;76;28003;-79
2021/05/11 03:14:56;;;;;;;10.65;5.20;;;;;;;10.11;77.00;99242.06;1815955;78;23428;-78
2021/05/11 03:17:31;;;;;;;13.95;5.40;;;;;;;10.02;77.85;99231.40;1803568;78;22942;-79
2021/05/11 03:20:10;;;;;;;16.27;5.90;;;;;;;10.00;77.61;99235.77;1806334;76;28026;-78
2021/05/11 03:22:45;;;;;;;14.73;5.62;;;;;;;10.08;76.75;99237.77;1816716;76;22881;-79
2021/05/11 03:25:23;;;;;;;11.20;5.08;;;;;;;10.04;77.33;99242.61;1811982;78;23409;-79
2021/05/11 03:27:59;;;;;;;11.10;4.45;;;;;;;10.01;77.67;99242.69;1795565;79;22924;-77
2021/05/11 03:30:38;;;;;;;13.60;5.47;;;;;;;9.97;77.93;99241.05;1816122;77;28177;-79
2021/05/11 03:33:13;;;;;;;9.35;4.72;;;;;;;10.02;76.04;99241.78;1810845;78;22918;-79
2021/05/11 03:35:48;;;;;;;9.73;4.42;;;;;;;10.02;78.11;99243.53;1816460;78;22920;-78
2021/05/11 03:38:24;;;;;;;9.93;5.10;;;;;;;10.00;78.34;99250.05;1803087;78;38374;-79
2021/05/11 03:41:00;;;;;;;9.53;4.50;;;;;;;10.09;77.94;99242.09;1885258;74;22931;-80
2021/05/11 03:46:28;;;;;;;9.73;4.65;;;;;;;10.12;79.01;99235.96;1818850;78;22915;-80
2021/05/11 03:49:05;;;;;;;8.35;4.47;;;;;;;10.13;77.75;99235.09;1813916;78;22921;-79
2021/05/11 03:51:58;;;;;;;11.88;4.55;;;;;;;10.18;77.61;99238.87;1822783;78;22907;-83
2021/05/11 03:54:33;;;;;;;9.38;4.37;;;;;;;10.19;79.03;99232.81;1812776;79;22933;-82
2021/05/11 03:57:08;;;;;;;11.40;5.17;;;;;;;10.25;78.23;99239.17;1809530;78;23329;-79
2021/05/11 03:59:42;;;;;;;9.50;4.65;;;;;;;10.31;79.28;99239.07;1812191;79;22930;-81
2021/05/11 04:02:17;;;;;;;8.55;4.85;;;;;;;10.39;79.77;99239.75;1806200;78;22908;-79
2021/05/11 04:04:51;;;;;;;11.05;4.83;;;;;;;10.44;79.47;99239.19;1812373;79;22959;-78
2021/05/11 04:07:31;;;;;;;16.12;5.12;;;;;;;10.48;78.29;99235.62;1816101;78;22937;-80
2021/05/11 04:18:40;;;;;;;13.62;4.95;;;;;;;10.64;77.39;99233.98;1817616;78;23438;-78
2021/05/11 04:21:15;;;;;;;12.13;4.50;;;;;;;10.63;76.12;99226.64;1886184;74;23391;-77
2021/05/11 04:23:51;;;;;;;13.28;5.80;;;;;;;10.64;77.11;99224.89;1892470;75;22864;-81
2021/05/11 04:26:26;;;;;;;10.23;4.87;;;;;;;10.67;76.54;99227.44;1810310;78;22923;-81
2021/05/11 04:29:01;;;;;;;9.75;4.12;;;;;;;10.71;75.71;99225.17;1811704;79;22945;-81
2021/05/11 04:31:37;;;;;;;11.05;4.25;;;;;;;10.76;76.60;99227.20;1812605;78;23234;-78
2021/05/11 04:34:18;;;;;;;10.72;4.42;;;;;;;10.82;75.41;99226.20;1811784;79;22943;-78
2021/05/11 04:36:53;;;;;;;10.05;4.15;;;;;;;10.87;75.48;99220.00;1881390;74;22590;-80
2021/05/11 04:39:28;;;;;;;9.98;4.03;;;;;;;10.95;74.52;99219.82;1805451;79;23405;-78
2021/05/11 04:42:04;;;;;;;12.45;4.12;;;;;;;11.04;74.41;99214.82;1813544;78;23441;-79
2021/05/11 04:44:39;;;;;;;12.55;5.90;;;;;;;11.14;74.30;99211.09;1811958;79;23397;-79
2021/05/11 04:47:18;;;;;;;16.07;5.22;;;;;;;11.26;74.98;99217.31;1802064;78;28029;-80
2021/05/11 04:49:51;;;;;;;10.43;4.40;;;;;;;11.45;74.19;99207.70;1802914;79;22935;-81
2021/05/11 04:52:25;;;;;;;11.15;5.47;;;;;;;11.58;74.33;99209.09;1815773;78;22876;-82
2021/05/11 04:55:00;;;;;;;11.60;5.95;;;;;;;11.69;74.01;99203.11;1799228;79;23460;-77
2021/05/11 04:57:35;;;;;;;16.57;5.30;;;;;;;11.77;74.03;99208.56;1806997;78;22884;-80
2021/05/11 05:00:13;;;;;;;9.70;5.17;;;;;;;11.83;73.78;99206.63;1812043;79;22947;-81
2021/05/11 05:02:50;;;;;;;10.72;5.20;;;;;;;11.89;73.44;99211.70;1799401;78;23410;-79
2021/05/11 05:05:24;;;;;;;13.15;5.80;;;;;;;11.94;73.11;99207.68;1785627;79;28158;-76
2021/05/11 05:08:19;;;;;;;12.10;5.12;;;;;;;12.08;73.48;99216.40;1873304;76;23376;-79
2021/05/11 05:10:53;;;;;;;14.95;5.15;;;;;;;12.13;73.27;99223.62;1815160;78;22906;-82
2021/05/11 05:13:28;;;;;;;12.07;5.22;;;;;;;12.21;72.42;99218.18;1806179;78;22959;-77
2021/05/11 05:16:04;;;;;;;15.30;5.58;;;;;;;12.25;72.08;99219.80;1816794;78;22893;-79
2021/05/11 05:18:38;;;;;;;12.47;5.58;;;;;;;12.29;72.63;99213.12;1807810;78;22927;-79
2021/05/11 05:21:14;;;;;;;14.60;5.25;;;;;;;12.35;73.07;99212.09;1805298;77;22923;-78
2021/05/11 05:23:50;;;;;;;13.00;5.58;;;;;;;12.42;72.49;99212.33;1785860;77;28597;-78
2021/05/11 05:26:27;;;;;;;12.85;5.90;;;;;;;12.57;72.21;99210.13;1822339;76;28898;-80
2021/05/11 05:29:09;;;;;;;13.58;5.60;;;;;;;12.76;71.93;99209.11;1811571;79;22935;-79
2021/05/11 05:31:44;;;;;;;10.93;4.90;;;;;;;12.86;71.75;99211.36;1827924;77;24035;-79
2021/05/11 05:34:20;;;;;;;14.25;5.37;;;;;;;13.00;71.60;99213.52;1811438;79;22971;-80
2021/05/11 05:37:02;;;;;;;11.83;4.15;;;;;;;13.08;70.81;99202.83;1817049;78;23771;-80
2021/05/11 05:39:47;;;;;;;7.33;4.22;;;;;;;13.31;70.62;99214.69;1811597;79;22939;-79
2021/05/11 05:42:40;;;;;;;13.22;4.35;;;;;;;13.50;69.50;99212.73;1813663;78;23342;-80
2021/05/11 05:45:35;;;;;;;7.90;4.22;;;;;;;13.61;67.78;99214.52;1809443;76;22926;-79
2021/05/11 05:48:10;;;;;;;9.93;4.65;;;;;;;13.70;67.59;99208.10;1870110;75;28014;-81
2021/05/11 05:50:46;;;;;;;9.70;4.42;;;;;;;13.83;65.90;99209.84;1843680;76;22848;-77
2021/05/11 05:56:01;;;;;;;8.75;4.42;;;;;;;14.03;65.52;99210.41;1815642;78;22912;-80
2021/05/11 05:58:36;;;;;;;7.97;4.03;;;;;;;14.06;65.28;99205.89;1817031;78;22910;-82
2021/05/11 06:01:30;;;;;;;15.13;4.25;;;;;;;14.16;64.93;99212.09;1810879;78;22934;-79
2021/05/11 06:04:14;;;;;;;12.98;3.72;;;;;;;14.24;64.66;99205.64;1816841;78;23418;-79
2021/05/11 06:06:49;;;;;;;10.45;4.25;;;;;;;14.35;64.02;99202.64;1813024;78;23432;-81
2021/05/11 06:09:31;;;;;;;10.00;4.25;;;;;;;14.43;64.08;99199.27;1813612;78;22907;-78
2021/05/11 06:12:12;;;;;;;10.23;4.40;;;;;;;14.52;64.21;99199.34;1816744;78;22871;-79
2021/05/11 06:17:25;;;;;;;8.75;4.50;;;;;;;14.65;64.32;99200.60;1811523;78;22891;-79
2021/05/11 06:19:59;;;;;;;9.23;4.28;;;;;;;14.73;64.02;99205.53;1891515;75;22902;-80
2021/05/11 06:22:53;;;;;;;10.05;4.72;;;;;;;14.79;63.34;99192.19;1864615;75;23478;-78
2021/05/11 06:25:28;;;;;;;8.48;4.20;;;;;;;14.90;63.08;99197.85;1791483;78;22940;-82
2021/05/11 06:28:04;;;;;;;8.65;3.30;;;;;;;15.02;61.14;99204.34;1794564;79;22951;-80
2021/05/11 06:30:58;;;;;;;9.55;4.80;;;;;;;15.07;60.06;99200.22;1816482;78;22928;-82
2021/05/11 06:33:32;;;;;;;10.53;4.10;;;;;;;15.14;58.87;99198.18;1800894;79;23026;-82
2021/05/11 06:36:26;;;;;;;5.72;3.02;;;;;;;15.28;58.92;99199.31;1801264;77;22967;-78
2021/05/11 06:39:09;;;;;;;8.70;3.70;;;;;;;15.38;58.81;99189.73;1890769;75;22857;-78
2021/05/11 06:41:45;;;;;;;9.38;3.77;;;;;;;15.50;59.31;99194.47;1767085;79;23137;-80
2021/05/11 06:44:32;;;;;;;9.90;4.65;;;;;;;15.61;59.72;99181.72;1806362;78;28620;-79
2021/05/11 06:50:09;;;;;;;9.20;4.50;;;;;;;15.93;58.78;99186.02;1827750;78;22978;-80
2021/05/11 06:55:13;;;;;;;8.75;4.10;;;;;;;16.16;57.67;99177.56;1866452;76;22946;-81
2021/05/11 06:57:44;;;;;;;12.25;3.83;;;;;;;16.26;56.83;99174.89;1823886;77;28056;-80
2021/05/11 07:00:19;;;;;;;12.90;3.40;;;;;;;16.46;56.34;99176.57;1821229;76;22939;-82
2021/05/11 07:02:54;;;;;;;6.17;3.27;;;;;;;16.56;56.50;99171.27;1826322;78;22943;-78
2021/05/11 07:05:32;;;;;;;7.10;3.47;;;;;;;16.63;56.91;99171.36;1811419;79;22935;-79
2021/05/11 07:08:16;;;;;;;12.35;5.42;;;;;;;16.71;56.07;99174.90;1833120;76;28010;-78
2021/05/11 07:13:27;;;;;;;12.30;4.35;;;;;;;16.96;56.21;99178.99;1799424;78;22839;-78
2021/05/11 07:16:02;;;;;;;10.13;4.22;;;;;;;17.02;55.71;99171.64;1806514;78;22883;-78
2021/05/11 07:18:42;;;;;;;6.95;4.20;;;;;;;17.10;56.20;99168.63;1822891;76;22859;-78
2021/05/11 07:21:17;;;;;;;7.92;4.22;;;;;;;17.20;55.68;99171.17;1842975;76;22917;-79
2021/05/11 07:23:53;;;;;;;11.75;3.95;;;;;;;17.29;55.88;99163.30;1800573;78;22921;-78
2021/05/11 07:26:29;;;;;;;11.63;3.90;;;;;;;17.33;55.86;99166.59;1797572;79;22929;-79
2021/05/11 07:29:09;;;;;;;13.13;4.37;;;;;;;17.42;55.35;99163.50;1790494;79;22937;-79
2021/05/11 07:31:39;;;;;;;8.17;4.37;;;;;;;17.55;55.97;99167.20;1796793;78;30941;-78
2021/05/11 07:34:17;;;;;;;9.90;3.30;;;;;;;17.75;56.11;99160.04;1874289;75;22902;-78
2021/05/11 07:36:51;;;;;;;12.43;4.40;;;;;;;17.89;53.88;99158.86;1873502;74;27622;-80
2021/05/11 07:39:26;;;;;;;10.38;3.60;;;;;;;18.06;54.21;99153.53;1817990;78;22918;-79
2021/05/11 07:42:04;;;;;;;6.50;3.40;;;;;;;18.17;52.71;99152.09;1803788;77;23583;-78
2021/05/11 07:44:44;;;;;;;7.35;3.40;;;;;;;18.29;53.10;99149.61;1892647;76;22877;-79
2021/05/11 07:50:38;;;;;;;12.05;3.75;;;;;;;18.49;51.52;99142.38;1797410;79;22943;-78
2021/05/11 08:04:44;;;;;;;7.60;3.33;;;;;;;19.03;49.68;99127.44;1813517;78;22914;-80
2021/05/11 08:15:39;;;;;;;12.07;4.87;;;;;;;19.49;48.99;99110.16;1817491;78;22916;-80
2021/05/11 08:29:21;;;;;;;8.88;3.20;;;;;;;19.97;46.85;99093.54;1814867;78;22939;-80
2021/05/11 08:31:57;;;;;;;6.28;3.27;;;;;;;20.08;47.06;99098.62;1813592;78;22912;-80
2021/05/11 08:34:31;;;;;;;10.13;3.83;;;;;;;20.20;47.82;99096.51;1847880;76;22866;-79
2021/05/11 08:37:05;;;;;;;8.58;2.80;;;;;;;20.35;47.24;99092.88;1820067;78;23092;-80
2021/05/11 08:39:40;;;;;;;8.08;2.67;;;;;;;20.49;45.95;99091.10;1819426;79;22934;-80
2021/05/11 08:42:15;;;;;;;4.83;2.75;;;;;;;20.61;46.12;99092.51;1816862;77;22866;-79
2021/05/11 08:44:51;;;;;;;8.10;2.80;;;;;;;20.75;46.69;99085.44;1825772;77;23235;-79
2021/05/11 08:47:29;;;;;;;9.40;3.05;;;;;;;20.85;44.48;99089.17;1817072;77;22929;-80
2021/05/11 08:50:04;;;;;;;6.47;2.65;;;;;;;20.95;44.56;99086.72;1804770;79;22841;-79
2021/05/11 09:07:00;;;;;;;6.75;3.12;;;;;;;21.45;42.73;99071.37;1839553;76;22909;-80
2021/05/11 09:27:41;;;;;;;8.50;2.77;;;;;;;22.02;43.04;99045.28;1886276;74;22846;-81
2021/05/11 09:51:10;;;;;;;5.35;2.58;;;;;;;22.94;41.06;99026.48;1823931;77;23053;-79
2021/05/11 10:48:25;;;;;;;8.70;2.45;;;;;;;25.38;36.80;98966.16;1820404;79;22936;-80
2021/05/11 10:51:21;;;;;;;5.70;1.90;;;;;;;25.44;35.94;98954.97;1854428;74;22912;-80
2021/05/11 10:54:01;;;;;;;4.17;2.20;;;;;;;25.65;35.94;98959.38;1823010;78;22868;-79
2021/05/11 10:56:45;;;;;;;6.67;2.08;;;;;;;25.82;36.58;98957.34;1838865;76;23002;-80
2021/05/11 11:02:37;;;;;;;9.03;2.17;;;;;;;25.95;36.58;98948.63;1886834;75;22879;-80
2021/05/11 11:05:04;;;;;;;3.47;1.95;;;;;;;26.07;35.59;98948.48;1811788;79;23273;-81
2021/05/11 11:07:42;;;;;;;3.77;1.95;;;;;;;26.02;34.08;98954.22;1825414;76;22241;-81
2021/05/11 11:10:17;;;;;;;4.15;1.87;;;;;;;25.98;33.80;98941.70;1834349;76;22905;-79
2021/05/11 11:12:54;;;;;;;5.20;2.20;;;;;;;25.98;34.87;98940.83;1813713;77;22897;-81
2021/05/11 11:15:50;;;;;;;5.97;1.85;;;;;;;25.98;34.54;98939.03;1856450;77;22930;-80
2021/05/11 11:18:25;;;;;;;4.60;2.10;;;;;;;26.07;34.73;98937.33;1795753;78;28495;-80
2021/05/11 11:23:56;;;;;;;8.75;2.02;;;;;;;26.61;33.97;98929.70;1784049;79;22909;-81
2021/05/11 11:26:41;;;;;;;4.55;2.02;;;;;;;26.64;32.98;98928.09;1815632;77;22918;-79
2021/05/11 11:29:14;;;;;;;7.90;2.27;;;;;;;26.65;32.53;98924.42;1831095;76;22923;-79
2021/05/11 11:31:50;;;;;;;4.72;2.08;;;;;;;26.75;32.59;98919.89;1817313;78;23380;-79
2021/05/11 11:37:13;;;;;;;3.77;1.92;;;;;;;27.06;32.45;98920.96;1804792;78;23308;-80
2021/05/11 11:39:49;;;;;;;4.60;2.27;;;;;;;27.24;33.44;98914.84;1845344;76;27971;-79
2021/05/11 11:42:28;;;;;;;5.25;2.10;;;;;;;27.50;32.46;98912.31;1848356;76;21148;-82
2021/05/11 11:45:04;;;;;;;2.72;1.75;;;;;;;27.60;32.23;98906.41;1806200;79;22934;-81
2021/05/11 11:48:05;;;;;;;5.37;1.80;;;;;;;27.87;31.92;98909.50;1754819;79;22955;-81
2021/05/11 11:51:02;;;;;;;4.03;1.70;;;;;;;28.08;32.53;98905.69;1812282;78;23382;-82
2021/05/11 11:53:45;;;;;;;3.50;1.92;;;;;;;28.05;30.21;98901.97;1802200;78;22912;-81
2021/05/11 11:56:25;;;;;;;7.35;2.00;;;;;;;28.19;30.20;98893.39;1889223;74;22897;-81
2021/05/11 11:59:06;;;;;;;5.33;2.05;;;;;;;28.52;31.69;98891.80;1821395;76;22883;-81
2021/05/11 12:01:56;;;;;;;4.35;1.62;;;;;;;28.80;29.92;98892.95;1813101;79;23467;-81
2021/05/11 12:04:32;;;;;;;8.33;1.82;;;;;;;28.96;30.83;98886.83;1814430;78;23050;-82
2021/05/11 12:07:34;;;;;;;5.92;2.05;;;;;;;29.27;30.13;98879.11;1881400;75;24036;-81
2021/05/11 12:10:10;;;;;;;6.40;1.85;;;;;;;29.68;29.68;98878.33;1807041;79;23016;-81
2021/05/11 12:12:45;;;;;;;4.60;1.93;;;;;;;30.16;29.23;98866.45;1796375;78;28511;-81
2021/05/11 12:15:21;;;;;;;5.62;2.10;;;;;;;30.24;26.54;98859.25;1813030;77;23072;-80
2021/05/11 12:20:50;;;;;;;4.85;2.50;;;;;;;30.98;25.48;98851.01;1812574;79;23360;-80
2021/05/11 12:23:24;;;;;;;4.10;2.17;;;;;;;31.25;26.43;98848.31;1806482;78;22918;-80
2021/05/11 12:26:07;;;;;;;4.87;1.90;;;;;;;31.86;25.30;98849.75;1919246;74;28028;-79
2021/05/11 12:29:14;;;;;;;3.95;1.80;;;;;;;32.46;22.66;98843.14;1797634;78;22895;-80
2021/05/11 12:31:56;;;;;;;4.65;1.90;;;;;;;33.31;24.60;98840.91;1757829;79;22994;-81
2021/05/11 12:34:33;;;;;;;7.15;2.42;;;;;;;33.98;24.82;98834.28;1820313;79;22792;-81
2021/05/11 12:37:08;;;;;;;4.55;1.82;;;;;;;34.77;23.18;98823.72;1828730;77;23028;-81
2021/05/11 12:40:10;;;;;;;5.97;1.92;;;;;;;35.52;20.15;98824.56;1812254;79;22952;-84
2021/05/11 12:42:43;;;;;;;3.37;1.90;;;;;;;36.06;20.97;98822.71;1819830;77;28140;-83
2021/05/11 12:45:19;;;;;;;4.83;2.10;;;;;;;36.54;18.99;98822.41;1796688;79;22955;-81
2021/05/11 12:48:02;;;;;;;7.92;2.12;;;;;;;37.41;18.49;98809.84;1803246;78;22971;-83
2021/05/11 12:50:42;;;;;;;6.25;2.20;;;;;;;38.05;17.40;98809.77;1867316;76;22889;-83
2021/05/11 12:56:58;;;;;;;4.55;2.40;;;;;;;39.48;19.02;98797.58;1843696;76;23019;-82
2021/05/11 12:59:49;;;;;;;5.03;1.75;;;;;;;39.69;16.23;98790.73;1881645;76;22832;-85
2021/05/11 13:02:42;;;;;;;5.20;1.80;;;;;;;40.24;15.24;98790.11;1824788;77;38374;-82
2021/05/11 13:28:04;;;;;;;3.50;1.87;;;;;;;41.72;13.05;98765.70;1834526;76;23717;-80
2021/05/11 13:30:54;;;;;;;6.50;2.30;;;;;;;41.82;13.47;98762.81;1807600;78;22973;-81
2021/05/11 13:36:06;;;;;;;4.35;1.72;;;;;;;41.38;13.98;98750.37;1835956;76;23077;-80
2021/05/11 13:38:43;;;;;;;7.03;2.37;;;;;;;40.31;13.19;98748.09;1879292;74;28354;-79
2021/05/11 13:41:26;;;;;;;4.30;1.77;;;;;;;40.91;12.83;98750.10;1890102;76;23429;-81
2021/05/11 13:44:02;;;;;;;2.62;1.60;;;;;;;41.00;13.16;98735.53;1883578;76;22887;-80
2021/05/11 13:46:37;;;;;;;6.65;1.80;;;;;;;40.92;13.30;98740.84;1815507;78;22965;-82
2021/05/11 13:49:15;;;;;;;3.20;1.70;;;;;;;40.56;13.46;98742.31;1798657;78;22894;-80
2021/05/11 13:51:50;;;;;;;4.60;1.80;;;;;;;40.74;13.08;98735.03;1841875;76;22911;-80
2021/05/11 13:54:25;;;;;;;6.00;2.10;;;;;;;40.89;13.10;98727.17;1816762;78;22887;-81
2021/05/11 14:02:55;;;;;;;4.12;2.10;;;;;;;40.59;12.57;98716.52;1829560;76;22933;-79
2021/05/11 14:05:31;;;;;;;3.22;1.60;;;;;;;40.42;12.20;98710.99;1887892;76;22878;-80
2021/05/11 14:08:07;;;;;;;3.75;1.85;;;;;;;40.43;12.37;98703.13;1798982;77;28261;-81
2021/05/11 14:10:42;;;;;;;6.22;1.60;;;;;;;40.47;12.16;98704.81;1811093;79;22953;-79
2021/05/11 14:13:19;;;;;;;4.05;1.50;;;;;;;40.90;12.31;98702.92;1885080;74;27967;-80
2021/05/11 14:16:13;;;;;;;2.90;1.20;;;;;;;41.38;11.48;98693.09;1811367;77;22968;-79
2021/05/11 14:18:49;;;;;;;4.80;1.30;;;;;;;41.89;11.35;98693.87;1871146;74;28057;-80
2021/05/11 14:21:27;;;;;;;6.70;1.50;;;;;;;42.21;10.32;98691.84;1820953;76;28208;-80
2021/05/11 14:24:05;;;;;;;3.12;1.40;;;;;;;42.47;10.16;98692.98;1893257;75;23363;-80
2021/05/11 14:26:41;;;;;;;4.25;1.45;;;;;;;43.20;11.31;98690.69;1873476;74;22835;-82
2021/05/11 14:29:17;;;;;;;3.67;1.45;;;;;;;42.41;9.85;98687.97;1807722;79;24259;-79
2021/05/11 14:31:52;;;;;;;5.40;1.25;;;;;;;42.48;10.16;98680.44;1803315;78;22964;-80
2021/05/11 14:34:27;;;;;;;12.05;1.60;;;;;;;42.25;9.74;98679.33;1823721;76;23285;-79
2021/05/11 14:37:04;;;;;;;4.95;1.50;;;;;;;42.65;9.22;98672.13;1829119;76;28624;-77
2021/05/11 14:39:41;;;;;;;4.25;1.30;;;;;;;43.19;9.37;98673.98;1816952;78;22952;-80
2021/05/11 14:42:36;;;;;;;2.70;1.20;;;;;;;42.95;8.54;98660.39;1822492;76;24074;-79
2021/05/11 14:45:12;;;;;;;1.77;1.10;;;;;;;43.08;8.75;98661.33;1849236;76;22886;-79
2021/05/11 14:47:49;;;;;;;2.27;1.10;;;;;;;43.61;9.96;98660.87;1812931;77;23229;-79
2021/05/11 14:50:26;;;;;;;6.33;1.20;;;;;;;43.05;8.79;98657.19;1887909;74;22415;-78
2021/05/11 14:53:02;;;;;;;3.05;1.40;;;;;;;43.19;8.89;98657.56;1796369;78;38504;-79
2021/05/11 14:55:37;;;;;;;5.60;1.32;;;;;;;43.51;8.15;98651.23;1845966;76;22891;-77
2021/05/11 14:58:11;;;;;;;4.72;1.17;;;;;;;43.40;8.78;98650.36;1801199;79;23540;-78
2021/05/11 15:00:46;;;;;;;3.50;1.12;;;;;;;43.66;8.80;98653.25;1811025;79;22964;-79
2021/05/11 15:03:41;;;;;;;10.00;1.77;;;;;;;43.56;9.06;98645.80;1807865;77;22919;-80
2021/05/11 15:06:17;;;;;;;3.47;1.30;;;;;;;43.49;9.02;98639.73;1848918;74;27838;-80
2021/05/11 15:08:56;;;;;;;4.80;1.40;;;;;;;43.80;8.88;98640.75;1806127;79;23406;-79
2021/05/11 15:11:37;;;;;;;3.42;1.20;;;;;;;43.56;9.08;98640.34;1806533;77;22855;-79
2021/05/11 15:14:14;;;;;;;3.55;1.40;;;;;;;43.26;9.32;98634.92;1881947;74;28546;-78
2021/05/11 15:16:57;;;;;;;2.75;1.30;;;;;;;43.86;9.09;98635.58;1907209;74;27879;-79
2021/05/11 15:19:26;;;;;;;4.87;1.40;;;;;;;43.88;9.30;98631.20;1800891;78;27992;-79
2021/05/11 15:22:02;;;;;;;2.33;1.10;;;;;;;43.84;8.85;98629.55;1802306;78;28029;-77
2021/05/11 15:24:39;;;;;;;2.77;1.40;;;;;;;43.93;8.81;98630.39;1879875;74;27985;-78
2021/05/11 15:27:17;;;;;;;4.37;1.30;;;;;;;43.90;9.53;98623.55;1854504;75;28120;-78
2021/05/11 15:29:52;;;;;;;4.35;1.30;;;;;;;43.87;9.57;98618.59;1810711;79;22955;-80
2021/05/11 15:32:58;;;;;;;3.17;1.40;;;;;;;43.57;9.96;98614.60;1872600;74;27903;-80
2021/05/11 15:35:34;;;;;;;6.70;1.72;;;;;;;43.61;10.32;98610.23;1841212;76;22901;-80
2021/05/11 15:38:12;;;;;;;5.78;1.50;;;;;;;43.26;10.27;98607.58;1871662;74;22835;-78
2021/05/11 15:40:47;;;;;;;5.85;1.70;;;;;;;43.13;10.59;98605.30;1804691;76;28021;-80
2021/05/11 15:43:24;;;;;;;3.83;1.52;;;;;;;42.92;10.47;98601.61;1809262;78;22914;-80
2021/05/11 15:45:59;;;;;;;7.05;1.60;;;;;;;42.34;10.42;98594.45;1847529;76;22251;-79
2021/05/11 15:48:53;;;;;;;4.10;1.42;;;;;;;42.16;10.56;98588.81;1827616;77;22995;-83
2021/05/11 15:51:27;;;;;;;2.47;1.42;;;;;;;41.90;11.34;98593.98;1807303;77;22870;-81
2021/05/11 15:54:03;;;;;;;4.22;1.60;;;;;;;41.33;11.14;98585.58;1822389;76;28613;-80
2021/05/11 15:56:38;;;;;;;3.60;1.40;;;;;;;41.64;11.21;98587.91;1836586;76;22903;-79
2021/05/11 15:59:14;;;;;;;6.87;1.62;;;;;;;41.49;11.56;98588.53;1850994;76;38304;-79
2021/05/11 16:01:51;;;;;;;7.43;1.60;;;;;;;40.48;11.79;98582.00;1840913;76;28051;-79
2021/05/11 16:04:27;;;;;;;5.45;1.62;;;;;;;40.50;11.81;98587.22;1765114;77;38426;-80
2021/05/11 16:07:12;;;;;;;8.70;1.50;;;;;;;40.39;12.05;98581.29;1814308;78;23504;-79
2021/05/11 16:09:51;;;;;;;4.80;1.60;;;;;;;39.88;12.39;98586.03;1811017;79;22927;-80
2021/05/11 16:12:27;;;;;;;9.90;1.93;;;;;;;39.56;12.91;98588.34;1880611;74;28341;-80
2021/05/11 16:15:10;;;;;;;7.80;2.17;;;;;;;39.69;12.86;98585.34;1823903;76;22905;-80
2021/05/11 16:17:46;;;;;;;2.75;1.52;;;;;;;39.01;13.42;98587.34;1831120;76;22851;-80
2021/05/11 16:20:23;;;;;;;3.90;1.60;;;;;;;38.52;13.87;98584.23;1831076;77;28586;-79
2021/05/11 16:23:00;;;;;;;4.15;1.70;;;;;;;38.44;14.00;98578.25;1814370;76;28066;-80
2021/05/11 16:25:38;;;;;;;2.87;1.70;;;;;;;38.01;14.41;98584.16;1866893;74;22781;-82
2021/05/11 16:28:13;;;;;;;4.95;1.65;;;;;;;37.49;15.00;98585.08;1814343;78;22914;-80
2021/05/11 16:30:48;;;;;;;6.85;1.57;;;;;;;36.87;15.60;98582.28;1858230;76;23552;-80
2021/05/11 16:33:23;;;;;;;11.35;3.20;;;;;;;36.46;16.03;98589.03;1816407;78;22914;-80
2021/05/11 16:35:58;;;;;;;5.08;2.02;;;;;;;36.13;16.55;98583.25;1866714;76;22873;-80
2021/05/11 16:38:33;;;;;;;8.73;2.67;;;;;;;35.73;17.19;98591.02;1821867;76;22891;-82
2021/05/11 16:41:07;;;;;;;6.33;2.10;;;;;;;35.35;17.37;98580.90;1811118;79;23086;-80
2021/05/11 16:43:50;;;;;;;9.33;2.17;;;;;;;35.05;17.52;98583.20;1816234;76;22930;-78
2021/05/11 16:46:25;;;;;;;9.93;2.70;;;;;;;34.12;19.03;98571.72;1866622;76;22374;-79
2021/05/11 16:49:00;;;;;;;7.53;2.58;;;;;;;34.12;18.94;98573.06;1796882;78;23013;-79
2021/05/11 16:51:41;;;;;;;6.15;2.35;;;;;;;33.86;19.34;98562.53;1776637;79;22961;-78